createdAt,value
2018-11-12T00:13:12.676Z,94.80
2018-11-12T00:15:48.530Z,94.80
2018-11-12T00:18:22.534Z,94.80
2018-11-12T00:20:59.004Z,94.80
2018-11-12T00:23:33.626Z,94.90
2018-11-12T00:26:09.483Z,95.00
2018-11-12T00:28:45.539Z,94.40
2018-11-12T00:31:21.594Z,94.60
2018-11-12T00:33:56.626Z,94.90
2018-11-12T00:36:30.640Z,95.20
2018-11-12T00:39:05.671Z,95.30
2018-11-12T00:41:42.552Z,95.40
2018-11-12T00:44:17.583Z,95.20
2018-11-12T00:46:52.615Z,95.10
2018-11-12T00:49:27.651Z,95.20
2018-11-12T00:52:02.889Z,95.20
2018-11-12T00:54:39.563Z,94.90
2018-11-12T00:57:16.638Z,95.00
2018-11-12T00:59:51.675Z,94.90
2018-11-12T01:02:27.120Z,94.80
2018-11-12T01:05:02.358Z,94.20
2018-11-12T01:07:37.389Z,94.40
2018-11-12T01:10:14.672Z,94.00
2018-11-12T01:12:49.502Z,94.10
2018-11-12T01:15:25.154Z,94.30
2018-11-12T01:18:01.620Z,94.00
2018-11-12T01:20:37.679Z,93.80
2018-11-12T01:23:12.917Z,93.90
2018-11-12T01:25:49.594Z,94.00
2018-11-12T01:28:25.647Z,93.90
2018-11-12T01:31:07.643Z,93.80
2018-11-12T01:33:43.702Z,94.40
2018-11-12T01:36:17.507Z,94.00
2018-11-12T01:38:54.084Z,93.90
2018-11-12T01:41:28.592Z,93.80
2018-11-12T01:44:03.633Z,94.10
2018-11-12T01:46:39.687Z,94.30
2018-11-12T01:49:15.539Z,94.30
2018-11-12T01:51:50.576Z,94.40
2018-11-12T01:54:24.583Z,94.60
2018-11-12T01:57:00.435Z,94.90
2018-11-12T01:59:35.876Z,95.00
2018-11-12T02:02:10.915Z,95.40
2018-11-12T02:04:44.537Z,96.40
2018-11-12T02:07:18.521Z,96.70
2018-11-12T02:09:53.558Z,96.70
2018-11-12T02:12:28.586Z,96.80
2018-11-12T02:15:03.623Z,96.90
2018-11-12T02:17:38.655Z,97.10
2018-11-12T02:20:16.555Z,96.80
2018-11-12T02:22:51.455Z,96.90
2018-11-12T02:25:26.089Z,97.00
2018-11-12T02:28:00.632Z,97.00
2018-11-12T02:30:39.556Z,97.20
2018-11-12T02:33:14.638Z,97.30
2018-11-12T02:35:49.630Z,97.60
2018-11-12T02:38:24.658Z,97.70
2018-11-12T02:40:59.690Z,97.70
2018-11-12T02:43:35.750Z,97.70
2018-11-12T02:46:10.577Z,97.70
2018-11-12T02:48:44.588Z,97.60
2018-11-12T02:51:20.643Z,97.50
2018-11-12T02:53:56.701Z,97.50
2018-11-12T02:56:33.578Z,97.00
2018-11-12T02:59:09.840Z,96.60
2018-11-12T03:01:44.674Z,96.30
2018-11-12T03:04:19.702Z,96.10
2018-11-12T03:06:53.712Z,96.00
2018-11-12T03:09:27.519Z,96.10
2018-11-12T03:12:02.552Z,96.40
2018-11-12T03:14:35.946Z,96.60
2018-11-12T03:17:11.593Z,96.60
2018-11-12T03:19:46.624Z,96.40
2018-11-12T03:22:21.661Z,95.70
2018-11-12T03:24:57.720Z,96.00
2018-11-12T03:27:32.598Z,96.10
2018-11-12T03:30:06.557Z,96.40
2018-11-12T03:32:42.614Z,96.80
2018-11-12T03:35:17.648Z,96.10
2018-11-12T03:37:51.656Z,95.80
2018-11-12T03:40:26.691Z,95.30
2018-11-12T03:43:02.540Z,95.60
2018-11-12T03:45:38.600Z,95.70
2018-11-12T03:48:14.657Z,96.10
2018-11-12T03:50:49.690Z,95.90
2018-11-12T03:53:24.518Z,95.90
2018-11-12T03:56:01.599Z,96.30
2018-11-12T03:58:37.454Z,96.30
2018-11-12T04:01:13.917Z,96.10
2018-11-12T04:03:50.592Z,96.20
2018-11-12T04:06:26.648Z,96.30
2018-11-12T04:09:01.887Z,96.30
2018-11-12T04:11:37.743Z,96.40
2018-11-12T04:14:15.643Z,96.70
2018-11-12T04:16:50.673Z,96.60
2018-11-12T04:19:25.708Z,96.80
2018-11-12T04:22:02.124Z,97.10
2018-11-12T04:24:36.596Z,97.20
2018-11-12T04:27:13.888Z,96.80
2018-11-12T04:29:48.707Z,96.70
2018-11-12T04:32:23.743Z,97.20
2018-11-12T04:34:59.593Z,97.10
2018-11-12T04:37:34.629Z,97.40
2018-11-12T04:40:09.663Z,97.20
2018-11-12T04:42:44.491Z,97.00
2018-11-12T04:45:21.787Z,97.30
2018-11-12T04:48:02.748Z,97.20
2018-11-12T04:50:37.782Z,97.00
2018-11-12T04:53:13.640Z,96.70
2018-11-12T04:55:48.673Z,96.70
2018-11-12T04:58:23.706Z,96.70
2018-11-12T05:00:58.736Z,96.90
2018-11-12T05:03:35.612Z,96.80
2018-11-12T05:06:11.469Z,96.90
2018-11-12T05:08:46.707Z,96.90
2018-11-12T05:11:23.165Z,96.80
2018-11-12T05:13:59.645Z,96.80
2018-11-12T05:16:35.968Z,96.90
2018-11-12T05:19:12.783Z,96.90
2018-11-12T05:21:49.654Z,97.00
2018-11-12T05:24:24.686Z,97.60
2018-11-12T05:26:59.520Z,97.70
2018-11-12T05:29:35.782Z,97.70
2018-11-12T05:32:09.786Z,97.70
2018-11-12T05:34:44.824Z,97.70
2018-11-12T05:37:20.678Z,97.70
2018-11-12T05:39:56.732Z,97.70
2018-11-12T05:42:31.763Z,97.70
2018-11-12T05:45:10.077Z,97.70
2018-11-12T05:47:45.721Z,97.70
2018-11-12T05:50:24.652Z,97.70
2018-11-12T05:53:08.188Z,97.70
2018-11-12T05:55:42.703Z,97.50
2018-11-12T05:58:18.187Z,97.70
2018-11-12T06:00:53.797Z,97.50
2018-11-12T06:03:29.238Z,97.20
2018-11-12T06:06:04.477Z,97.20
2018-11-12T06:08:39.711Z,97.60
2018-11-12T06:11:16.302Z,97.60
2018-11-12T06:13:53.060Z,97.60
2018-11-12T06:16:31.780Z,97.70
2018-11-12T06:19:06.809Z,97.70
2018-11-12T06:21:50.682Z,97.70
2018-11-12T06:24:24.866Z,97.70
2018-11-12T06:44:19.870Z,97.70
2018-11-12T07:04:12.832Z,97.70
2018-11-12T07:24:05.174Z,97.20
2018-11-12T07:26:38.784Z,97.20
2018-11-12T07:29:15.861Z,97.20
2018-11-12T07:49:10.460Z,95.50
2018-11-12T07:51:49.799Z,95.70
2018-11-12T08:11:41.951Z,94.90
2018-11-12T08:14:23.962Z,95.20
2018-11-12T08:34:14.845Z,94.90
2018-11-12T08:36:52.945Z,95.00
2018-11-12T08:39:29.149Z,94.80
2018-11-12T08:42:03.832Z,93.80
2018-11-12T08:44:39.886Z,93.90
2018-11-12T09:04:48.005Z,92.60
2018-11-12T09:07:31.026Z,92.80
2018-11-12T09:27:25.218Z,92.50
2018-11-12T09:30:02.459Z,92.50
2018-11-12T09:49:55.256Z,91.40
2018-11-12T09:52:29.057Z,90.60
2018-11-12T09:55:09.026Z,90.50
2018-11-12T10:15:07.742Z,91.10
2018-11-12T10:17:46.604Z,90.80
2018-11-12T10:37:35.082Z,90.80
2018-11-12T10:40:11.956Z,90.40
2018-11-12T10:42:47.474Z,89.90
2018-11-12T10:45:24.889Z,89.50
2018-11-12T10:47:59.970Z,89.50
2018-11-12T11:07:55.348Z,89.20
2018-11-12T11:10:32.012Z,89.00
2018-11-12T11:30:33.985Z,86.90
2018-11-12T11:33:09.027Z,85.90
2018-11-12T11:53:00.134Z,86.50
2018-11-12T11:55:35.170Z,86.60
2018-11-12T11:58:11.430Z,86.50
2018-11-12T12:18:04.189Z,83.00
2018-11-12T12:20:39.426Z,83.40
2018-11-12T12:40:35.251Z,81.20
2018-11-12T12:43:10.489Z,81.50
2018-11-12T12:45:48.499Z,81.50
2018-11-12T12:48:28.132Z,81.40
2018-11-12T12:51:02.143Z,81.50
2018-11-12T13:13:38.121Z,81.30
2018-11-12T13:33:31.079Z,82.50
2018-11-12T13:36:08.165Z,82.60
2018-11-12T13:38:43.193Z,82.60
2018-11-12T13:58:36.156Z,84.30
2018-11-12T14:01:11.189Z,84.20
2018-11-12T14:21:02.024Z,85.30
2018-11-12T14:23:36.520Z,85.50
2018-11-12T14:26:11.643Z,85.80
2018-11-12T14:28:46.335Z,85.60
2018-11-12T14:31:22.621Z,86.10
2018-11-12T14:51:18.143Z,87.50
2018-11-12T14:53:55.148Z,87.60
2018-11-12T15:13:56.305Z,88.20
2018-11-12T15:16:31.651Z,88.50
2018-11-12T15:19:07.180Z,88.40
2018-11-12T15:21:42.223Z,87.80
2018-11-12T15:24:24.217Z,87.60
2018-11-12T15:44:18.665Z,87.90
2018-11-12T15:46:56.102Z,88.00
2018-11-12T15:49:34.202Z,88.10
2018-11-12T15:52:12.511Z,87.80
2018-11-12T15:54:48.160Z,87.50
2018-11-12T16:14:47.308Z,86.70
2018-11-12T16:17:22.297Z,86.90
2018-11-12T16:37:13.208Z,87.90
2018-11-12T16:39:48.246Z,87.90
2018-11-12T16:59:39.737Z,88.10
2018-11-12T17:19:36.205Z,87.50
2018-11-12T17:22:21.280Z,87.40
2018-11-12T17:42:18.343Z,86.70
2018-11-12T18:02:09.246Z,86.80
2018-11-12T18:04:45.310Z,86.90
2018-11-12T18:24:38.875Z,86.40
2018-11-12T18:27:14.315Z,86.60
2018-11-12T18:47:10.357Z,85.90
2018-11-12T19:07:05.357Z,85.40
2018-11-12T19:09:42.029Z,85.50
2018-11-12T19:29:39.291Z,85.00
2018-11-12T19:32:13.297Z,85.00
2018-11-12T19:34:50.393Z,84.90
2018-11-12T19:54:43.355Z,85.70
2018-11-12T19:57:18.374Z,85.80
2018-11-12T19:59:54.226Z,85.70
2018-11-12T20:02:29.261Z,85.60
2018-11-12T20:05:05.318Z,85.70
2018-11-12T20:24:56.239Z,85.70
2018-11-12T20:27:31.467Z,86.10
2018-11-12T20:30:07.319Z,86.50
2018-11-12T20:32:41.333Z,86.70
2018-11-12T20:35:17.390Z,86.80
2018-11-12T20:37:52.429Z,86.70
2018-11-12T20:40:27.451Z,86.90
2018-11-12T21:00:28.402Z,86.20
2018-11-12T21:03:03.434Z,86.60
2018-11-12T21:05:38.465Z,87.20
2018-11-12T21:25:32.448Z,86.40
2018-11-12T21:45:27.456Z,86.50
2018-11-12T21:48:03.520Z,86.70
2018-11-12T22:07:57.500Z,87.30
2018-11-12T22:10:32.329Z,87.30
2018-11-12T22:30:25.493Z,89.00
2018-11-12T22:33:01.759Z,89.10
2018-11-12T22:35:37.403Z,89.20
2018-11-12T22:55:30.982Z,87.90
2018-11-12T22:58:07.446Z,87.80
2018-11-12T23:18:02.246Z,87.30
2018-11-12T23:20:36.257Z,87.30
2018-11-12T23:23:10.061Z,87.40
2018-11-12T23:43:03.840Z,87.40
2018-11-12T23:45:37.853Z,88.10
